createdAt,value
2022-11-05T00:01:29.232Z,10.41
2022-11-05T00:04:35.543Z,10.44
2022-11-05T00:07:47.162Z,10.36
2022-11-05T00:10:37.298Z,10.33
2022-11-05T00:13:44.973Z,10.32
2022-11-05T00:16:45.468Z,10.32
2022-11-05T00:19:33.909Z,10.25
2022-11-05T00:22:39.668Z,10.26
2022-11-05T00:25:29.843Z,10.14
2022-11-05T00:28:18.273Z,10.31
2022-11-05T00:31:10.253Z,10.32
2022-11-05T00:33:58.654Z,10.25
2022-11-05T00:36:47.094Z,10.28
2022-11-05T00:39:35.537Z,10.23
2022-11-05T00:42:41.322Z,10.19
2022-11-05T00:45:30.353Z,10.23
2022-11-05T00:48:37.764Z,10.15
2022-11-05T00:51:26.242Z,10.24
2022-11-05T00:54:14.782Z,10.21
2022-11-05T00:57:04.763Z,10.16
2022-11-05T00:59:53.465Z,10.26
2022-11-05T01:02:42.007Z,10.28
2022-11-05T01:05:33.031Z,9.93
2022-11-05T01:08:23.273Z,10.23
2022-11-05T01:11:32.844Z,10.22
2022-11-05T01:14:21.291Z,10.29
2022-11-05T01:17:09.742Z,10.31
2022-11-05T01:19:58.165Z,10.27
2022-11-05T01:22:47.956Z,10.31
2022-11-05T01:25:36.799Z,10.29
2022-11-05T01:28:25.289Z,10.28
2022-11-05T01:31:13.802Z,10.33
2022-11-05T01:34:02.430Z,10.28
2022-11-05T01:36:50.846Z,10.27
2022-11-05T01:39:40.608Z,10.29
2022-11-05T01:42:29.718Z,10.28
2022-11-05T01:45:20.081Z,10.26
2022-11-05T01:48:10.307Z,10.32
2022-11-05T01:51:00.487Z,10.28
2022-11-05T01:53:51.237Z,10.27
2022-11-05T01:56:45.041Z,10.31
2022-11-05T01:59:36.154Z,10.37
2022-11-05T02:02:25.523Z,10.34
2022-11-05T02:05:15.575Z,10.35
2022-11-05T02:08:04.241Z,10.38
2022-11-05T02:10:52.865Z,10.29
2022-11-05T02:13:42.694Z,10.26
2022-11-05T02:16:39.069Z,10.30
2022-11-05T02:20:03.014Z,10.24
2022-11-05T02:23:18.050Z,10.27
2022-11-05T02:26:29.652Z,10.27
2022-11-05T02:30:03.050Z,10.28
2022-11-05T02:33:02.861Z,10.28
2022-11-05T02:36:01.613Z,10.25
2022-11-05T02:38:56.855Z,10.29
2022-11-05T02:41:52.272Z,10.30
2022-11-05T02:44:46.174Z,10.28
2022-11-05T02:47:40.000Z,10.22
2022-11-05T02:50:33.497Z,9.93
2022-11-05T02:53:30.140Z,10.18
2022-11-05T02:56:22.373Z,10.22
2022-11-05T02:59:10.918Z,10.24
2022-11-05T03:01:59.979Z,10.17
2022-11-05T03:04:48.566Z,10.25
2022-11-05T03:07:44.577Z,10.30
2022-11-05T03:10:41.441Z,10.28
2022-11-05T03:13:35.140Z,10.27
2022-11-05T03:16:30.909Z,10.25
2022-11-05T03:19:23.092Z,10.24
2022-11-05T03:22:14.287Z,10.25
2022-11-05T03:25:07.783Z,10.26
2022-11-05T03:27:59.810Z,10.27
2022-11-05T03:30:49.316Z,10.27
2022-11-05T03:33:38.764Z,10.25
2022-11-05T03:36:31.559Z,10.22
2022-11-05T03:39:23.348Z,10.07
2022-11-05T03:42:15.743Z,10.27
2022-11-05T03:45:08.195Z,10.24
2022-11-05T03:47:58.909Z,10.23
2022-11-05T03:50:51.277Z,10.25
2022-11-05T03:53:44.513Z,10.22
2022-11-05T03:56:37.771Z,10.24
2022-11-05T03:59:28.330Z,10.26
2022-11-05T04:02:19.320Z,10.22
2022-11-05T04:05:08.331Z,10.17
2022-11-05T04:08:14.743Z,10.25
2022-11-05T04:11:20.590Z,10.29
2022-11-05T04:14:09.059Z,10.26
2022-11-05T04:17:09.337Z,10.28
2022-11-05T04:20:15.558Z,10.28
2022-11-05T04:23:23.314Z,10.32
2022-11-05T04:26:11.708Z,9.94
2022-11-05T04:29:17.761Z,10.26
2022-11-05T04:32:07.727Z,10.26
2022-11-05T04:34:56.186Z,10.28
2022-11-05T04:37:44.590Z,10.25
2022-11-05T04:40:33.357Z,10.25
2022-11-05T04:43:22.109Z,10.26
2022-11-05T04:46:11.295Z,10.27
2022-11-05T04:49:01.098Z,10.25
2022-11-05T04:51:49.530Z,10.25
2022-11-05T04:54:38.286Z,10.28
2022-11-05T04:57:26.779Z,10.26
2022-11-05T05:00:15.349Z,10.24
2022-11-05T05:03:03.770Z,10.22
2022-11-05T05:05:53.981Z,10.22
2022-11-05T05:08:42.658Z,10.23
2022-11-05T05:11:31.093Z,10.27
2022-11-05T05:14:19.496Z,10.27
2022-11-05T05:17:07.939Z,10.21
2022-11-05T05:20:13.186Z,10.11
2022-11-05T05:23:03.600Z,10.04
2022-11-05T05:25:51.991Z,10.03
2022-11-05T05:28:40.444Z,10.07
2022-11-05T05:31:28.870Z,9.98
2022-11-05T05:34:17.291Z,9.97
2022-11-05T05:37:05.687Z,9.97
2022-11-05T05:39:55.458Z,9.94
2022-11-05T05:42:43.962Z,9.92
2022-11-05T05:45:32.394Z,9.83
2022-11-05T05:48:20.811Z,9.85
2022-11-05T05:51:13.479Z,9.86
2022-11-05T05:54:01.895Z,9.84
2022-11-05T05:56:51.719Z,9.85
2022-11-05T05:59:40.182Z,9.84
2022-11-05T06:02:31.257Z,9.82
2022-11-05T06:05:19.784Z,9.78
2022-11-05T06:08:08.220Z,9.77
2022-11-05T06:10:56.675Z,9.79
2022-11-05T06:13:46.502Z,9.66
2022-11-05T06:16:35.750Z,9.71
2022-11-05T06:19:24.217Z,9.63
2022-11-05T06:22:12.623Z,9.64
2022-11-05T06:25:01.034Z,9.60
2022-11-05T06:27:49.469Z,9.62
2022-11-05T06:30:39.218Z,9.60
2022-11-05T06:33:28.108Z,9.54
2022-11-05T06:36:18.523Z,9.67
2022-11-05T06:39:10.862Z,9.68
2022-11-05T06:45:09.067Z,9.62
2022-11-05T06:47:59.719Z,9.61
2022-11-05T06:50:48.367Z,9.59
2022-11-05T06:53:36.977Z,9.59
2022-11-05T06:56:25.828Z,9.58
2022-11-05T06:59:14.239Z,9.55
2022-11-05T07:02:02.806Z,9.53
2022-11-05T07:04:52.670Z,9.29
2022-11-05T07:07:42.061Z,9.50
2022-11-05T07:10:30.496Z,9.51
2022-11-05T07:13:18.958Z,9.51
2022-11-05T07:16:08.496Z,9.51
2022-11-05T07:18:56.929Z,9.52
2022-11-05T07:21:48.619Z,9.56
2022-11-05T07:24:37.072Z,9.56
2022-11-05T07:27:25.521Z,9.66
2022-11-05T07:30:14.175Z,9.66
2022-11-05T07:33:02.607Z,9.67
2022-11-05T07:35:51.043Z,9.68
2022-11-05T07:38:40.883Z,9.62
2022-11-05T07:41:29.735Z,9.74
2022-11-05T07:44:18.213Z,9.75
2022-11-05T07:47:06.634Z,9.75
2022-11-05T07:49:55.051Z,9.77
2022-11-05T07:52:43.462Z,9.77
2022-11-05T07:55:33.741Z,9.89
2022-11-05T07:58:22.163Z,9.94
2022-11-05T08:01:10.689Z,10.01
2022-11-05T08:03:59.242Z,10.07
2022-11-05T08:06:47.750Z,10.14
2022-11-05T08:09:36.372Z,10.21
2022-11-05T08:12:26.195Z,9.48
2022-11-05T08:15:14.664Z,10.48
2022-11-05T08:18:04.569Z,10.51
2022-11-05T08:20:53.015Z,10.48
2022-11-05T08:23:42.840Z,10.51
2022-11-05T08:26:31.317Z,10.49
2022-11-05T08:29:21.098Z,10.43
2022-11-05T08:32:09.641Z,10.44
2022-11-05T08:34:58.140Z,10.41
2022-11-05T08:37:46.550Z,10.35
2022-11-05T08:40:36.663Z,10.34
2022-11-05T08:43:25.219Z,10.35
2022-11-05T08:46:15.080Z,10.35
2022-11-05T08:49:03.733Z,10.28
2022-11-05T08:51:52.211Z,10.16
2022-11-05T08:54:40.629Z,10.26
2022-11-05T08:57:29.090Z,10.25
2022-11-05T09:00:18.094Z,10.24
2022-11-05T09:03:09.536Z,9.68
2022-11-05T09:05:58.394Z,10.32
2022-11-05T09:08:46.864Z,10.40
2022-11-05T09:12:05.398Z,10.49
2022-11-05T09:14:43.756Z,10.59
2022-11-05T09:17:32.174Z,10.74
2022-11-05T09:20:22.185Z,10.81
2022-11-05T09:23:12.475Z,10.87
2022-11-05T09:26:01.264Z,10.83
2022-11-05T09:28:49.676Z,10.82
2022-11-05T09:31:38.122Z,10.75
2022-11-05T09:34:26.621Z,10.67
2022-11-05T09:37:16.576Z,10.63
2022-11-05T09:40:05.861Z,10.57
2022-11-05T09:42:55.021Z,10.55
2022-11-05T09:45:44.203Z,10.61
2022-11-05T09:48:33.710Z,10.61
2022-11-05T09:51:24.253Z,10.56
2022-11-05T09:54:15.793Z,10.70
2022-11-05T09:57:04.773Z,10.67
2022-11-05T09:59:55.253Z,10.72
2022-11-05T10:02:49.080Z,10.79
2022-11-05T10:05:38.569Z,10.78
2022-11-05T10:08:29.364Z,10.84
2022-11-05T10:11:21.560Z,10.88
2022-11-05T10:14:15.554Z,11.03
2022-11-05T10:17:09.412Z,11.04
2022-11-05T10:20:03.149Z,11.14
2022-11-05T10:22:57.485Z,11.17
2022-11-05T10:25:49.560Z,11.34
2022-11-05T10:28:39.582Z,11.58
2022-11-05T10:31:35.184Z,11.74
2022-11-05T10:34:26.207Z,11.86
2022-11-05T10:37:14.669Z,12.00
2022-11-05T10:40:03.197Z,11.86
2022-11-05T10:42:58.244Z,12.03
2022-11-05T10:45:53.723Z,12.00
2022-11-05T10:48:50.610Z,11.82
2022-11-05T10:51:39.377Z,11.84
2022-11-05T10:54:31.599Z,11.75
2022-11-05T10:57:32.267Z,11.65
2022-11-05T11:00:22.854Z,11.86
2022-11-05T11:03:35.080Z,12.11
2022-11-05T11:06:26.515Z,12.43
2022-11-05T11:09:21.929Z,12.59
2022-11-05T11:12:16.822Z,12.81
2022-11-05T11:15:14.041Z,12.82
2022-11-05T11:18:25.919Z,12.59
2022-11-05T11:21:17.379Z,12.47
2022-11-05T11:24:07.474Z,11.81
2022-11-05T11:26:56.230Z,12.26
2022-11-05T11:29:49.538Z,12.07
2022-11-05T11:32:40.071Z,12.10
2022-11-05T11:35:29.280Z,12.19
2022-11-05T11:38:19.116Z,12.14
2022-11-05T11:41:23.948Z,12.01
2022-11-05T11:44:14.255Z,11.88
2022-11-05T11:47:04.723Z,11.81
2022-11-05T11:49:55.053Z,11.66
2022-11-05T11:52:43.532Z,11.57
2022-11-05T11:55:33.329Z,11.49
2022-11-05T11:58:22.304Z,11.45
2022-11-05T12:01:50.197Z,11.37
2022-11-05T12:05:03.286Z,11.30
2022-11-05T12:07:53.114Z,11.30
2022-11-05T12:10:55.040Z,11.30
2022-11-05T12:13:57.707Z,11.30
2022-11-05T12:16:58.098Z,11.30
2022-11-05T12:20:00.025Z,11.24
2022-11-05T12:23:15.797Z,11.31
2022-11-05T12:26:12.089Z,11.30
2022-11-05T12:29:34.444Z,11.33
2022-11-05T12:32:56.414Z,11.34
2022-11-05T12:36:03.482Z,11.37
2022-11-05T12:39:20.801Z,11.49
2022-11-05T12:42:17.175Z,11.57
2022-11-05T12:45:15.035Z,11.58
2022-11-05T12:48:16.553Z,11.56
2022-11-05T12:51:18.894Z,11.78
2022-11-05T12:54:19.263Z,11.77
2022-11-05T12:57:12.524Z,11.89
2022-11-05T13:00:07.353Z,11.96
2022-11-05T13:02:57.785Z,11.94
2022-11-05T13:05:49.570Z,11.92
2022-11-05T13:08:42.083Z,11.86
2022-11-05T13:11:35.683Z,11.79
2022-11-05T13:14:28.526Z,11.73
2022-11-05T13:17:19.702Z,11.72
2022-11-05T13:20:17.357Z,11.71
2022-11-05T13:23:15.036Z,11.72
2022-11-05T13:26:07.345Z,11.71
2022-11-05T13:28:59.813Z,11.65
2022-11-05T13:31:51.070Z,11.61
2022-11-05T13:34:39.552Z,11.53
2022-11-05T13:37:47.809Z,11.44
2022-11-05T13:40:44.034Z,11.51
2022-11-05T13:43:45.747Z,11.30
2022-11-05T13:46:44.936Z,11.36
2022-11-05T13:49:50.191Z,11.30
2022-11-05T13:53:12.394Z,11.20
2022-11-05T13:56:06.548Z,11.04
2022-11-05T13:59:21.550Z,10.95
2022-11-05T14:02:15.633Z,11.00
2022-11-05T14:05:07.176Z,10.75
2022-11-05T14:07:56.495Z,11.06
2022-11-05T14:10:46.253Z,11.07
2022-11-05T14:13:38.403Z,11.07
2022-11-05T14:16:29.490Z,11.11
2022-11-05T14:19:52.095Z,11.15
2022-11-05T14:22:42.669Z,11.18
2022-11-05T14:26:13.054Z,11.17
2022-11-05T14:29:24.530Z,11.16
2022-11-05T14:32:43.082Z,11.04
2022-11-05T14:35:37.692Z,11.11
2022-11-05T14:38:28.563Z,11.04
2022-11-05T14:41:17.276Z,11.00
2022-11-05T14:44:07.537Z,11.01
2022-11-05T14:46:58.572Z,11.00
2022-11-05T14:49:52.930Z,10.98
2022-11-05T14:52:41.884Z,11.00
2022-11-05T14:55:35.620Z,10.97
2022-11-05T14:58:30.619Z,10.69
2022-11-05T15:01:52.871Z,10.29
2022-11-05T15:04:45.350Z,10.88
2022-11-05T15:07:37.534Z,10.87
2022-11-05T15:10:28.694Z,10.80
2022-11-05T15:13:29.815Z,10.87
2022-11-05T15:16:21.889Z,10.85
2022-11-05T15:19:19.215Z,10.84
2022-11-05T15:22:13.656Z,10.84
2022-11-05T15:25:02.640Z,10.78
2022-11-05T15:27:58.812Z,10.49
2022-11-05T15:30:59.667Z,10.65
2022-11-05T15:33:48.898Z,10.39
2022-11-05T15:36:37.375Z,10.60
2022-11-05T15:39:31.428Z,10.50
2022-11-05T15:42:22.232Z,10.51
2022-11-05T15:45:20.377Z,10.45
2022-11-05T15:48:20.183Z,10.10
2022-11-05T15:51:10.248Z,10.33
2022-11-05T15:57:18.852Z,10.20
2022-11-05T16:00:16.191Z,10.16
2022-11-05T16:03:06.511Z,10.07
2022-11-05T16:05:56.608Z,10.00
2022-11-05T16:08:48.754Z,9.90
2022-11-05T16:11:37.214Z,9.64
2022-11-05T16:14:35.771Z,9.68
2022-11-05T16:17:27.518Z,9.65
2022-11-05T16:20:30.109Z,9.62
2022-11-05T16:23:25.470Z,9.54
2022-11-05T16:27:01.110Z,9.37
2022-11-05T16:29:49.637Z,9.40
2022-11-05T16:32:38.095Z,9.33
2022-11-05T16:35:26.601Z,9.04
2022-11-05T16:38:15.170Z,9.15
2022-11-05T16:41:05.338Z,9.02
2022-11-05T16:43:55.208Z,8.78
2022-11-05T16:46:44.643Z,8.95
2022-11-05T16:49:33.149Z,8.90
2022-11-05T16:52:21.617Z,8.87
2022-11-05T16:55:10.074Z,8.86
2022-11-05T16:58:00.569Z,8.80
2022-11-05T17:00:49.577Z,8.51
2022-11-05T17:03:38.061Z,8.59
2022-11-05T17:06:26.533Z,8.49
2022-11-05T17:09:14.949Z,8.42
2022-11-05T17:12:03.383Z,8.33
2022-11-05T17:14:53.167Z,8.32
2022-11-05T17:17:41.607Z,8.31
2022-11-05T17:20:39.869Z,8.26
2022-11-05T17:23:29.851Z,8.23
2022-11-05T17:26:18.299Z,8.20
2022-11-05T17:29:06.752Z,8.19
2022-11-05T17:31:56.566Z,8.10
2022-11-05T17:34:45.057Z,8.05
2022-11-05T17:37:33.592Z,8.05
2022-11-05T17:40:23.401Z,7.76
2022-11-05T17:43:12.272Z,8.01
2022-11-05T17:46:04.520Z,7.89
2022-11-05T17:48:54.657Z,7.84
2022-11-05T17:51:43.329Z,7.77
2022-11-05T17:54:31.783Z,7.56
2022-11-05T17:57:21.198Z,7.34
2022-11-05T18:00:11.052Z,7.39
2022-11-05T18:02:59.549Z,7.34
2022-11-05T18:05:49.375Z,7.34
2022-11-05T18:08:37.843Z,7.35
2022-11-05T18:11:26.335Z,7.29
2022-11-05T18:14:17.677Z,7.27
2022-11-05T18:17:08.588Z,7.24
2022-11-05T18:19:57.044Z,7.11
2022-11-05T18:22:46.942Z,7.10
2022-11-05T18:25:35.493Z,7.05
2022-11-05T18:28:23.966Z,7.00
2022-11-05T18:31:17.853Z,6.89
2022-11-05T18:34:06.983Z,6.84
2022-11-05T18:36:56.656Z,6.82
2022-11-05T18:39:47.021Z,6.77
2022-11-05T18:42:35.567Z,6.47
2022-11-05T18:45:29.363Z,6.68
2022-11-05T18:48:18.307Z,6.63
2022-11-05T18:51:09.033Z,6.36
2022-11-05T18:53:57.519Z,6.46
2022-11-05T18:56:47.362Z,6.44
2022-11-05T18:59:38.680Z,6.42
2022-11-05T19:02:28.138Z,6.42
2022-11-05T19:05:32.674Z,6.45
2022-11-05T19:08:21.205Z,6.51
2022-11-05T19:11:11.610Z,6.58
2022-11-05T19:14:01.454Z,6.54
2022-11-05T19:16:50.009Z,6.57
2022-11-05T19:19:38.811Z,6.19
2022-11-05T19:22:27.360Z,6.47
2022-11-05T19:25:15.828Z,6.41
2022-11-05T19:28:04.513Z,6.55
2022-11-05T19:30:54.377Z,6.57
2022-11-05T19:33:43.121Z,6.40
2022-11-05T19:36:31.640Z,6.62
2022-11-05T19:39:20.087Z,6.65
2022-11-05T19:42:08.609Z,6.65
2022-11-05T19:45:06.841Z,6.68
2022-11-05T19:48:07.830Z,6.72
2022-11-05T19:50:56.269Z,6.66
2022-11-05T19:53:44.988Z,6.65
2022-11-05T19:56:34.674Z,6.65
2022-11-05T19:59:23.154Z,6.63
2022-11-05T20:02:16.052Z,6.63
2022-11-05T20:05:06.899Z,6.65
2022-11-05T20:07:56.205Z,6.60
2022-11-05T20:10:44.680Z,6.55
2022-11-05T20:13:33.382Z,6.45
2022-11-05T20:16:24.041Z,6.38
2022-11-05T20:19:15.015Z,6.36
2022-11-05T20:22:04.871Z,6.24
2022-11-05T20:24:53.371Z,6.37
2022-11-05T20:27:42.702Z,6.35
2022-11-05T20:30:31.228Z,6.33
2022-11-05T20:33:19.780Z,6.38
2022-11-05T20:36:10.458Z,6.31
2022-11-05T20:39:02.196Z,6.40
2022-11-05T20:41:50.665Z,6.43
2022-11-05T20:44:39.159Z,6.37
2022-11-05T20:47:27.754Z,6.23
2022-11-05T20:50:16.364Z,6.24
2022-11-05T20:53:04.835Z,6.10
2022-11-05T20:55:54.725Z,6.07
2022-11-05T20:58:43.238Z,6.12
2022-11-05T21:01:33.736Z,6.10
2022-11-05T21:04:22.331Z,6.00
2022-11-05T21:07:10.856Z,6.05
2022-11-05T21:09:59.354Z,6.02
2022-11-05T21:12:49.182Z,6.03
2022-11-05T21:15:37.729Z,6.02
2022-11-05T21:18:29.835Z,6.02
2022-11-05T21:21:20.315Z,5.96
2022-11-05T21:24:09.174Z,5.87
2022-11-05T21:26:57.632Z,5.79
2022-11-05T21:29:47.434Z,5.84
2022-11-05T21:32:36.234Z,5.77
2022-11-05T21:35:24.705Z,5.74
2022-11-05T21:38:14.150Z,5.67
2022-11-05T21:41:03.821Z,5.63
2022-11-05T21:43:52.305Z,5.68
2022-11-05T21:46:42.125Z,5.66
2022-11-05T21:49:30.703Z,5.64
2022-11-05T21:52:36.690Z,5.62
2022-11-05T21:55:42.830Z,5.57
2022-11-05T21:58:48.633Z,5.60
2022-11-05T22:01:37.165Z,5.49
2022-11-05T22:04:27.080Z,5.51
2022-11-05T22:07:17.314Z,5.50
2022-11-05T22:10:10.782Z,5.51
2022-11-05T22:13:03.293Z,5.44
2022-11-05T22:15:57.901Z,5.19
2022-11-05T22:18:46.365Z,5.50
2022-11-05T22:21:36.279Z,5.51
2022-11-05T22:24:24.900Z,4.84
2022-11-05T22:27:15.216Z,5.54
2022-11-05T22:30:03.928Z,5.62
2022-11-05T22:32:52.404Z,5.73
2022-11-05T22:35:40.829Z,5.74
2022-11-05T22:38:31.331Z,5.78
2022-11-05T22:41:22.408Z,5.81
2022-11-05T22:44:11.323Z,5.81
2022-11-05T22:46:59.791Z,5.86
2022-11-05T22:49:50.009Z,5.85
2022-11-05T22:52:38.461Z,5.85
2022-11-05T22:55:28.225Z,5.70
2022-11-05T22:58:16.691Z,5.79
2022-11-05T23:01:06.020Z,5.76
2022-11-05T23:03:56.302Z,5.77
2022-11-05T23:07:02.301Z,5.77
2022-11-05T23:10:23.118Z,5.80
2022-11-05T23:13:12.922Z,5.75
2022-11-05T23:16:18.555Z,5.74
2022-11-05T23:19:24.610Z,5.76
2022-11-05T23:22:31.168Z,5.76
2022-11-05T23:25:21.956Z,5.63
2022-11-05T23:28:11.908Z,5.59
2022-11-05T23:31:19.642Z,5.60
2022-11-05T23:34:08.094Z,5.57
2022-11-05T23:37:14.094Z,5.50
2022-11-05T23:40:02.879Z,5.51
2022-11-05T23:43:09.545Z,5.55
2022-11-05T23:46:17.112Z,5.56
2022-11-05T23:49:06.931Z,5.53
2022-11-05T23:51:55.385Z,5.52
2022-11-05T23:54:44.043Z,5.49
2022-11-05T23:57:32.509Z,5.54
